Weather observations for the past three days for
Joliet Regional Airport
Imperial (Metric)
Date Time (cdt) Wind (mph) Vis. (mi.) Weather Sky Cond. Temperature (ºF) Relative Humidity Wind Chill (°F) Heat Index (°F) Pressure Precipitation (in)
Air Dwpt 6 hour altimeter (in) sea level (mb) 1 hr 3 hr 6 hr
Max. Min.
04 20:55 S 6 10.00 Light Rain OVC090 60.8 55.4 83% 29.54 0.0 0.01
04 20:35 S 7 G 16 10.00 Light Rain OVC090 62.1 54 75% 29.53 0.0 0.01
04 20:15 SW 9 G 20 10.00 Light Rain SCT070 OVC090 59.9 56.1 87% 29.55 0.0 0.01
04 19:55 SW 14 G 25 10.00 Rain SCT075 OVC090 62.1 55.9 80% 29.57 0.0 0.04
04 19:35 SW 7 10.00 Light Rain BKN110 62.8 56.3 80% 29.53 0.0 0.02
04 19:15 S 8 10.00 Light Rain SCT036 SCT065 BKN090 62.1 57.4 85% 29.51 0.0 0.02
04 18:55 SW 15 G 31 3.00 Light Rain SCT036 SCT065 BKN090 64.4 56.7 82 64.4 76% 29.53 0.0 0.12 0.18
04 18:35 SW 16 G 23 10.00 Partly Cloudy SCT070 SCT090 72 54.9 55% 29.5 0.0
04 18:15 SW 13 G 23 10.00 Partly Cloudy SCT070 SCT075 SCT100 73 53.2 50% 29.49 0.0
04 17:55 SW 7 G 18 10.00 Mostly Cloudy SCT080 SCT090 BKN110 74.1 50.5 44% 29.49 0.0 0.06
04 17:35 Calm 10.00 Overcast BKN080 OVC090 71.1 56.5 60% 29.49 0.0 0.06
04 17:15 N 5 5.00 Light Rain SCT029 BKN080 OVC090 68 54.9 63% 29.51 0.0 0.06
04 16:55 SW 10 G 17 10.00 Light Rain OVC080 77.4 49.5 38% 78 29.5 0.0
04 16:35 SW 12 G 17 10.00 Light Rain OVC080 76.8 50 39% 78 29.49 0.0
04 16:15 SW 10 G 22 10.00 Overcast OVC090 79.2 48.4 34% 79 29.5 0.0
04 15:55 SW 13 G 18 10.00 Overcast OVC090 80.2 45.3 29% 79 29.51 0.0
04 15:35 SW 12 G 24 10.00 Overcast BKN090 OVC110 81.7 45.5 28% 80 29.51 0.0
04 15:15 W 10 G 18 10.00 Mostly Cloudy SCT090 BKN110 80.1 45 29% 79 29.52 0.0
04 14:55 SW 7 G 20 10.00 Mostly Cloudy BKN090 81.1 47.1 30% 80 29.53 0.0
04 14:35 SW 12 G 18 10.00 Mostly Cloudy BKN080 BKN100 80.6 44.4 28% 79 29.53 0.0
04 14:15 W 9 G 20 10.00 Partly Cloudy SCT080 81 45.3 29% 80 29.54 0.0
04 13:55 W 12 G 21 10.00 Partly Cloudy SCT080 80.8 45.7 29% 80 29.54 0.0
04 13:35 SW 13 G 20 10.00 Partly Cloudy SCT080 80.1 45.5 30% 79 29.54 0.0
04 13:15 SW 13 G 21 10.00 Partly Cloudy SCT080 80.1 44.1 28% 79 29.55 0.0
04 12:55 SW 10 G 18 10.00 Partly Cloudy SCT070 79.2 46.2 79.2 50.9 31% 79 29.55 0.0
04 12:35 SW 14 G 18 10.00 Fair CLR 78.3 47.7 34% 79 29.56 0.0
04 12:15 SW 8 G 18 10.00 Fair CLR 77.4 47.1 34% 78 29.57 0.0
04 11:55 SW 12 G 18 10.00 Fair CLR 75.9 47.5 37% 78 29.58 0.0
04 11:35 SW 13 10.00 Fair CLR 74.8 50.5 43% 29.59 0.0
04 11:15 SW 12 G 17 10.00 Fair CLR 73.6 50.5 44% 29.6 0.0
04 10:55 SW 8 10.00 Fair CLR 72.5 50 45% 29.61 0.0
04 10:35 SW 12 G 20 10.00 Fair CLR 71.6 50 47% 29.61 0.0
04 10:15 SW 9 10.00 Fair CLR 71.4 48.7 45% 29.62 0.0
04 09:55 SW 7 10.00 Fair CLR 70 50.4 50% 29.63 0.0
04 09:35 SW 7 10.00 Fair CLR 68.7 50.2 52% 29.63 0.0
04 09:15 SW 6 10.00 Fair CLR 66.6 49.5 54% 29.64 0.0
04 08:55 SW 8 10.00 Fair CLR 64.6 48.6 56% 29.65 0.0
04 08:35 SW 6 10.00 Fair CLR 62.8 48.9 61% 29.66 0.0
04 08:15 SW 6 10.00 Fair CLR 60.4 48.4 65% 29.66 0.0
04 07:55 SW 5 10.00 Fair CLR 58.1 49.1 72% 29.66 0.0
04 07:35 S 7 10.00 Fair CLR 55.8 49.5 80% 29.67 0.0
04 07:15 S 3 10.00 Fair CLR 53.4 48.6 84% 29.67 0.0
04 06:55 S 5 10.00 Fair CLR 50.5 48.2 59.9 43.5 92% 29.67 0.0
04 06:35 S 3 10.00 Fair CLR 46.4 46.4 100% 29.67 0.0
04 06:15 Calm 10.00 Fair CLR 44.6 44.2 99% 29.67 0.0
04 05:55 Calm 10.00 Fair CLR 44.4 42.6 93% 29.67 0.0
04 05:35 Calm 10.00 Fair CLR 46.8 45.3 95% 29.68 0.0
04 05:15 S 3 10.00 Fair CLR 46.8 45.7 96% 29.68 0.0
04 04:55 Calm 10.00 Fair CLR 46.2 43 89% 29.69 0.0
04 04:35 S 3 10.00 Fair CLR 48.9 45.5 88% 29.68 0.0
04 04:15 S 5 10.00 Fair CLR 46.2 44.4 93% 45 29.68 0.0
04 03:55 Calm 10.00 Fair CLR 49.1 45.9 89% 29.68 0.0
04 03:35 S 3 10.00 Fair CLR 48.6 45.5 89% 29.68 0.0
04 03:15 Calm 10.00 Fair CLR 47.1 44.2 90% 29.68 0.0
04 02:55 S 5 10.00 Fair CLR 47.1 45.3 94% 46 29.69 0.0
04 02:35 Calm 10.00 Fair CLR 46.8 41.9 83% 29.68 0.0
04 02:15 Calm 10.00 Fair CLR 54.3 44.8 70% 29.68 0.0
04 01:55 W 3 10.00 Fair CLR 56.5 45 66% 29.69 0.0
04 01:35 W 3 10.00 Fair CLR 57.4 45 63% 29.7 0.0
04 01:15 W 5 10.00 Fair CLR 58.5 44.8 61% 29.71 0.0
04 00:55 W 6 10.00 Fair CLR 59.9 44.6 68.4 55.8 57% 29.71 0.0
04 00:35 W 6 10.00 Fair CLR 59 45.1 60% 29.71 0.0
04 00:15 SW 5 10.00 Fair CLR 59.2 45.7 61% 29.72 0.0
03 23:55 SW 5 10.00 Fair CLR 59.7 45.7 60% 29.72 0.0
03 23:35 SW 6 10.00 Fair CLR 59.4 45.9 61% 29.71 0.0
03 23:15 SW 6 10.00 Fair CLR 56.8 45.7 66% 29.72 0.0
03 22:55 S 5 10.00 Fair CLR 56.1 45.3 67% 29.73 0.0
03 22:35 S 5 10.00 Fair CLR 56.3 45.5 67% 29.73 0.0
03 22:15 S 5 10.00 Fair CLR 57 45 64% 29.74 0.0
03 21:55 S 5 10.00 Fair CLR 58.3 45 61% 29.74 0.0
03 21:35 S 6 10.00 Fair CLR 58.8 45 60% 29.74 0.0
03 21:15 SW 5 10.00 Fair CLR 60.3 45 57% 29.73 0.0
03 20:55 SW 5 10.00 Fair CLR 60.6 44.8 56% 29.73 0.0
03 20:35 SW 5 10.00 Fair CLR 61.5 44.6 54% 29.72 0.0
03 20:15 SW 3 10.00 Fair CLR 63.1 44.4 51% 29.72 0.0
03 19:55 SW 6 10.00 Fair CLR 64.4 43.7 47% 29.72 0.0
03 19:35 SW 6 10.00 Fair CLR 66.6 43.7 44% 29.72 0.0
03 19:15 SW 7 10.00 Fair CLR 67.5 43.3 42% 29.72 0.0
03 18:55 SW 10 G 20 10.00 Fair CLR 68.4 42.6 70.3 54.9 39% 29.73 0.0 0.01
03 18:35 SW 10 G 21 10.00 Fair CLR 68.9 42.4 38% 29.72 0.0
03 18:15 W 15 G 21 10.00 Fair CLR 69.8 41.9 36% 29.72 0.0
03 17:55 SW 13 0.00 NULL NULL 69.8 41.7 36% 29.73 0.0
03 17:35 SW 13 G 17 10.00 Overcast OVC075 70.2 41.7 36% 29.73 0.0
03 17:15 SW 10 G 16 10.00 Overcast OVC075 68.7 40.8 36% 29.74 0.0
03 16:55 SW 9 G 16 10.00 Overcast OVC075 68 41.4 38% 29.74 0.0
03 16:35 SW 10 G 22 10.00 Overcast OVC075 68.4 40.8 37% 29.74 0.0
03 16:15 SW 12 G 20 10.00 Overcast OVC075 66.6 40.1 38% 29.76 0.0
03 15:55 SW 14 G 20 10.00 Overcast OVC075 65.7 39.9 39% 29.78 0.0 0.01
03 15:35 SW 14 G 26 10.00 Overcast OVC075 65.1 38.1 37% 29.79 0.0
03 15:15 SW 18 G 29 10.00 Overcast OVC075 65.5 36.7 35% 29.79 0.0
03 14:55 S 17 G 28 10.00 Overcast OVC075 64.4 36.7 36% 29.81 0.0 0.01
03 14:35 S 23 G 32 10.00 Partly Cloudy and Breezy SCT075 66.9 39.2 36% 29.8 0.0 0.01
03 14:15 S 21 G 31 10.00 Fair and Breezy CLR 65.1 38.8 38% 29.81 0.0 0.01
03 13:55 S 12 G 29 10.00 Fair CLR 63.5 41.7 45% 29.82 0.0
03 13:35 S 13 G 25 10.00 Fair CLR 62.1 43.5 51% 29.84 0.0
03 13:15 S 13 G 16 10.00 Partly Cloudy SCT060 SCT085 59.2 46.4 63% 29.85 0.0
03 12:55 S 6 10.00 Overcast SCT060 SCT070 OVC080 54.3 45.9 54.7 49.3 73% 29.87 0.0 0.02
03 12:35 SE 7 10.00 Overcast SCT060 OVC080 52.2 44.8 76% 29.89 0.0
03 12:15 S 3 10.00 Light Rain SCT048 BKN060 OVC070 51.8 46.4 82% 29.94 0.0
03 11:55 SE 7 10.00 Rain SCT048 BKN050 OVC070 52.2 45.5 78% 29.94 0.0 0.01
03 11:35 SE 6 10.00 Light Rain OVC050 51.8 45.1 78% 29.94 0.0 0.01
03 11:15 S 3 10.00 Light Rain SCT047 OVC050 51.4 44.6 78% 29.96 0.0 0.01
03 10:55 S 3 10.00 Light Drizzle SCT044 OVC060 50.2 45.1 83% 29.96 0.0 0.01
03 10:35 SW 7 7.00 Light Rain BKN042 OVC050 50.5 43.2 76% 29.97 0.0 0.01
03 10:15 SW 9 G 16 10.00 Rain SCT047 BKN050 OVC065 52 40.6 65% 29.98 0.0
03 09:55 SW 8 10.00 Light Rain SCT046 BKN060 OVC070 54.5 38.5 55% 29.97 0.0
03 09:35 SW 9 10.00 Overcast SCT070 OVC090 54 37.4 54% 29.97 0.0
03 09:15 SW 9 G 22 10.00 Mostly Cloudy BKN100 BKN120 54.1 36.5 51% 29.96 0.0
03 08:55 SW 10 G 21 10.00 Partly Cloudy SCT100 54.5 36.5 51% 29.97 0.0
03 08:35 SW 9 10.00 Mostly Cloudy BKN110 53.2 37.2 55% 29.97 0.0
03 08:15 SW 7 10.00 Fair CLR 52 36.7 56% 29.98 0.0
03 07:55 SW 8 10.00 Fair CLR 50.9 36.3 58% 29.98 0.0
03 07:35 SW 8 10.00 Fair CLR 49.6 35.4 58% 47 29.98 0.0
03 07:15 SW 9 10.00 Fair CLR 49.5 34.5 57% 46 29.98 0.0
03 06:55 SW 7 10.00 Fair CLR 49.3 33.8 49.3 43.2 55% 47 29.97 0.0
03 06:35 SW 7 10.00 Fair CLR 48.6 33.6 56% 46 29.97 0.0
03 06:15 SW 7 10.00 Fair CLR 47.7 33.3 58% 45 29.97 0.0
03 05:55 SW 7 10.00 Fair CLR 46.8 32.9 59% 44 29.97 0.0
03 05:35 SW 5 10.00 Fair CLR 46.4 32.9 59% 45 29.98 0.0
03 05:15 SW 7 10.00 Fair CLR 46 32.7 60% 43 29.98 0.0
03 04:55 SW 5 10.00 Fair CLR 45.9 32.4 59% 44 29.98 0.0
03 04:35 SW 5 10.00 Fair CLR 45.7 32.5 60% 44 29.99 0.0
03 04:15 SW 6 10.00 Fair CLR 45 32.5 62% 42 29.99 0.0
03 03:55 SW 6 10.00 Fair CLR 44.8 32.4 62% 42 29.99 0.0
03 03:35 SW 5 10.00 Fair CLR 43.2 32 65% 41 29.99 0.0
03 03:15 SW 3 10.00 Fair CLR 43.9 32 63% 29.99 0.0
03 02:55 SW 3 10.00 Fair CLR 44.8 32 61% 29.99 0.0
03 02:35 SW 5 10.00 Fair CLR 46.2 31.8 57% 45 29.99 0.0
03 02:15 S 5 10.00 Fair CLR 45.5 31.6 58% 44 29.99 0.0
03 01:55 SW 3 10.00 Fair CLR 45.3 31.3 58% 30 0.0
03 01:35 SW 5 10.00 Fair CLR 45.3 31.1 58% 43 30 0.0
03 01:15 SW 3 10.00 Fair CLR 45.5 30.9 57% 30.01 0.0
03 00:55 SW 3 10.00 Fair CLR 44.2 30.9 56.5 42.8 60% 30.02 0.0
03 00:35 SW 3 10.00 Fair CLR 44.6 31.5 60% 30.02 0.0
03 00:15 SW 3 10.00 Fair CLR 45 31.3 59% 30.02 0.0
02 23:55 SW 3 10.00 Fair CLR 45 32.2 61% 30.02 0.0
02 23:35 SW 3 10.00 Fair CLR 45 32.2 61% 30.03 0.0
02 23:15 SW 3 10.00 Fair CLR 44.2 36 73% 30.03 0.0
02 22:55 Calm 10.00 Fair CLR 45 32.9 63% 30.03 0.0
02 22:35 SW 3 10.00 Fair CLR 45.1 33.8 65% 30.03 0.0
02 22:15 Calm 10.00 Fair CLR 43.9 34.5 70% 30.03 0.0
02 21:55 Calm 10.00 Fair CLR 44.6 33.3 65% 30.04 0.0
02 21:35 Calm 10.00 Fair CLR 46 32.9 60% 30.03 0.0
02 21:15 Calm 10.00 Fair CLR 47.7 32 55% 30.03 0.0
02 20:55 Calm 10.00 Partly Cloudy SCT095 49.1 32 52% 30.03 0.0
02 20:35 Calm 10.00 Fair CLR 49.6 32.2 51% 30.03 0.0
02 20:15 Calm 10.00 Fair CLR 52.2 30.6 44% 30.02 0.0
02 19:55 W 3 10.00 Partly Cloudy SCT090 54.9 27.5 35% 30.02 0.0
02 19:35 W 3 10.00 Mostly Cloudy SCT075 BKN090 56.3 27.5 33% 30.02 0.0
02 19:15 W 3 10.00 Mostly Cloudy BKN075 55.9 27.1 33% 30.03 0.0
02 18:55 Calm 10.00 Partly Cloudy SCT085 56.3 27.1 59.5 52.7 33% 30.03 0.0
02 18:35 W 3 10.00 Partly Cloudy SCT085 57.4 27 31% 30.03 0.0
02 18:15 W 6 10.00 Fair CLR 55.8 26.8 33% 30.04 0.0
02 17:55 NW 6 10.00 Mostly Cloudy SCT070 BKN090 56.7 26.8 32% 30.04 0.0
02 17:35 W 9 10.00 Overcast SCT070 OVC090 57.7 28 32% 30.04 0.0
02 17:15 W 9 10.00 Mostly Cloudy SCT070 BKN090 57.2 27.1 32% 30.04 0.0
02 16:55 NW 5 10.00 Mostly Cloudy BKN070 BKN090 59.5 28.2 30% 30.05 0.0
02 16:35 Calm 10.00 Overcast SCT080 OVC090 56.1 26.8 32% 30.05 0.0
02 16:15 NW 5 10.00 Partly Cloudy SCT090 56.3 26.8 32% 30.05 0.0
02 15:55 NW 6 10.00 Partly Cloudy SCT090 56.5 29.1 35% 30.06 0.0
02 15:35 NW 7 G 20 10.00 Fair CLR 55.9 27.5 34% 30.06 0.0
02 15:15 NW 7 10.00 Partly Cloudy SCT065 SCT075 SCT085 56.5 29.7 36% 30.07 0.0
02 14:55 N 8 10.00 Mostly Cloudy SCT055 BKN070 BKN085 55.4 29.7 37% 30.09 0.0
02 14:35 N 8 10.00 Mostly Cloudy BKN085 54.5 27.1 35% 30.09 0.0
02 14:15 N 8 10.00 Partly Cloudy SCT070 SCT085 55.9 28 34% 30.09 0.0
02 13:55 N 6 10.00 Overcast SCT060 OVC085 55.6 29.3 37% 30.1 0.0
02 13:35 NW 9 10.00 Overcast BKN060 OVC080 53.8 27.7 37% 30.11 0.0
02 13:15 N 8 10.00 Mostly Cloudy BKN060 BKN075 53.2 28.2 38% 30.11 0.0
02 12:55 N 7 10.00 Mostly Cloudy BKN060 54 27.3 54.3 34.7 36% 30.11 0.0
02 12:35 N 10 G 16 10.00 Mostly Cloudy BKN060 BKN075 52.5 26.4 36% 30.12 0.0
02 12:15 Calm 10.00 Mostly Cloudy BKN060 53.6 26.8 36% 30.12 0.0
02 11:55 N 7 10.00 Partly Cloudy SCT060 53.4 27.5 37% 30.13 0.0
02 11:35 NW 6 10.00 Partly Cloudy SCT060 SCT070 52.9 26.8 36% 30.13 0.0
02 11:15 NW 7 10.00 Fair CLR 52.7 27.5 38% 30.14 0.0
02 10:55 NW 7 10.00 Fair CLR 51.6 27.3 39% 30.14 0.0
02 10:35 NW 5 10.00 Fair CLR 50.4 25.9 39% 30.14 0.0
02 10:15 W 7 10.00 Fair CLR 49.8 26.2 40% 47 30.14 0.0
02 09:55 N 5 10.00 Fair CLR 50.2 28.8 44% 30.14 0.0
02 09:35 W 3 10.00 Fair CLR 48.6 27.9 45% 30.14 0.0
02 09:15 NW 5 10.00 Fair CLR 48.4 29.8 49% 47 30.14 0.0
02 08:55 Calm 10.00 Fair CLR 46.9 31.6 55% 30.14 0.0
02 08:35 Calm 10.00 Fair CLR 45.5 32.9 62% 30.14 0.0
02 08:15 Calm 10.00 Fair CLR 43.7 34.5 70% 30.14 0.0
02 07:55 Calm 10.00 Fair CLR 41.4 35.4 79% 30.14 0.0
02 07:35 Calm 10.00 Fair CLR 39.9 36.5 88% 30.14 0.0
02 07:15 Calm 10.00 Fair CLR 37 36.1 97% 30.14 0.0
02 06:55 Calm 10.00 Fair CLR 34.3 34.2 39.2 29.3 99% 30.13 0.0
02 06:35 Calm 10.00 Fair CLR 31.8 31.6 99% 30.12 0.0
02 06:15 Calm 10.00 Fair CLR 30 29.8 99% 30.12 0.0
02 05:55 Calm 10.00 Fair CLR 30.6 30.2 99% 30.12 0.0
02 05:35 Calm 10.00 Fair CLR 32 32 100% 30.12 0.0
02 05:15 Calm 10.00 Fair CLR 31.1 30.9 99% 30.11 0.0
02 04:55 Calm 10.00 Fair CLR 29.8 29.1 97% 30.11 0.0
02 04:35 Calm 10.00 Fair CLR 30.6 29.7 96% 30.11 0.0
02 04:15 Calm 10.00 Fair CLR 32 31.8 99% 30.11 0.0
02 03:55 Calm 10.00 Fair CLR 31.6 30.9 97% 30.11 0.0
02 03:35 Calm 10.00 Fair CLR 32 31.8 99% 30.11 0.0
02 03:15 Calm 10.00 Fair CLR 32 31.6 99% 30.11 0.0
02 02:55 Calm 10.00 Fair CLR 32.5 31.8 97% 30.11 0.0
02 02:35 Calm 10.00 Fair CLR 34.2 33.1 96% 30.11 0.0
02 02:15 Calm 10.00 Partly Cloudy SCT080 35.2 33.3 93% 30.11 0.0
02 01:55 Calm 10.00 Mostly Cloudy BKN080 37 33.3 86% 30.11 0.0
02 01:35 Calm 10.00 Overcast OVC070 37.2 32.7 84% 30.12 0.0
02 01:15 Calm 10.00 Mostly Cloudy BKN070 37.2 31.6 80% 30.12 0.0
02 00:55 Calm 10.00 Partly Cloudy SCT080 39.2 31.1 47.8 38.1 73% 30.13 0.0
02 00:35 Calm 10.00 Mostly Cloudy BKN070 39 32 76% 30.13 0.0
02 00:15 Calm 10.00 Overcast OVC070 39.2 32 75% 30.13 0.0
01 23:55 Calm 10.00 Overcast SCT055 OVC070 39.2 32 75% 30.13 0.0
01 23:35 Calm 10.00 Mostly Cloudy BKN055 BKN070 38.3 32 78% 30.13 0.0
01 23:15 E 3 10.00 Partly Cloudy SCT070 38.5 30.2 72% 30.13 0.0
01 22:55 Calm 10.00 Partly Cloudy SCT060 39.6 30.4 70% 30.12 0.0
01 22:35 E 5 10.00 Mostly Cloudy BKN070 39.7 30 68% 37 30.12 0.0
01 22:15 E 7 10.00 Mostly Cloudy BKN070 40.8 30.4 66% 37 30.11 0.0
01 21:55 NE 7 10.00 Mostly Cloudy BKN065 41.2 31.3 68% 37 30.11 0.0
01 21:35 NE 8 10.00 Mostly Cloudy BKN065 41.5 31.5 67% 37 30.11 0.0
Date Time (cdt) Wind (mph) Vis. (mi.) Weather Sky Cond. Air Dwpt Max. Min. Relative Humidity Wind Chill (°F) Heat Index (°F) altimeter (in) sea level (mb) 1 hr 3 hr 6 hr
6 hour
Temperature (ºF) Pressure Precipitation (in)